sensor_id;sensor_type;location;lat;lon;timestamp;P1;durP1;ratioP1;P2;durP2;ratioP2
63599;SDS011;49747;51.334;6.830;2022-11-15T00:01:28;8.63;;;5.22;;
63599;SDS011;49747;51.334;6.830;2022-11-15T00:04:14;9.02;;;4.70;;
63599;SDS011;49747;51.334;6.830;2022-11-15T00:06:59;9.55;;;5.70;;
63599;SDS011;49747;51.334;6.830;2022-11-15T00:09:45;7.80;;;4.55;;
63599;SDS011;49747;51.334;6.830;2022-11-15T00:12:30;8.25;;;4.68;;
63599;SDS011;49747;51.334;6.830;2022-11-15T00:15:15;8.88;;;5.18;;
63599;SDS011;49747;51.334;6.830;2022-11-15T00:18:01;8.75;;;5.20;;
63599;SDS011;49747;51.334;6.830;2022-11-15T00:20:47;8.20;;;5.30;;
63599;SDS011;49747;51.334;6.830;2022-11-15T00:23:32;8.77;;;5.00;;
63599;SDS011;49747;51.334;6.830;2022-11-15T00:26:18;7.38;;;4.90;;
63599;SDS011;49747;51.334;6.830;2022-11-15T00:29:03;8.77;;;5.35;;
63599;SDS011;49747;51.334;6.830;2022-11-15T00:31:49;7.85;;;5.32;;
63599;SDS011;49747;51.334;6.830;2022-11-15T00:34:34;9.20;;;5.88;;
63599;SDS011;49747;51.334;6.830;2022-11-15T00:37:19;10.00;;;5.65;;
63599;SDS011;49747;51.334;6.830;2022-11-15T00:40:05;8.82;;;5.60;;
63599;SDS011;49747;51.334;6.830;2022-11-15T00:42:50;10.15;;;4.78;;
63599;SDS011;49747;51.334;6.830;2022-11-15T00:45:35;8.00;;;5.18;;
63599;SDS011;49747;51.334;6.830;2022-11-15T00:48:21;9.05;;;5.78;;
63599;SDS011;49747;51.334;6.830;2022-11-15T00:51:06;8.27;;;5.30;;
63599;SDS011;49747;51.334;6.830;2022-11-15T00:53:51;9.40;;;5.10;;
63599;SDS011;49747;51.334;6.830;2022-11-15T00:56:37;8.35;;;4.93;;
63599;SDS011;49747;51.334;6.830;2022-11-15T00:59:22;8.65;;;4.80;;
63599;SDS011;49747;51.334;6.830;2022-11-15T01:02:07;7.20;;;4.57;;
63599;SDS011;49747;51.334;6.830;2022-11-15T01:04:53;7.88;;;4.97;;
63599;SDS011;49747;51.334;6.830;2022-11-15T01:07:38;8.65;;;5.20;;
63599;SDS011;49747;51.334;6.830;2022-11-15T01:10:24;9.18;;;4.65;;
63599;SDS011;49747;51.334;6.830;2022-11-15T01:13:10;9.70;;;5.53;;
63599;SDS011;49747;51.334;6.830;2022-11-15T01:15:56;7.07;;;4.72;;
63599;SDS011;49747;51.334;6.830;2022-11-15T01:18:41;10.20;;;5.38;;
63599;SDS011;49747;51.334;6.830;2022-11-15T01:21:26;6.75;;;4.38;;
63599;SDS011;49747;51.334;6.830;2022-11-15T01:24:12;8.90;;;4.53;;
63599;SDS011;49747;51.334;6.830;2022-11-15T01:26:58;6.13;;;4.15;;
63599;SDS011;49747;51.334;6.830;2022-11-15T01:29:44;9.60;;;4.68;;
63599;SDS011;49747;51.334;6.830;2022-11-15T01:32:29;7.65;;;4.55;;
63599;SDS011;49747;51.334;6.830;2022-11-15T01:35:14;6.82;;;4.00;;
63599;SDS011;49747;51.334;6.830;2022-11-15T01:38:00;8.02;;;4.60;;
63599;SDS011;49747;51.334;6.830;2022-11-15T01:40:45;7.10;;;4.88;;
63599;SDS011;49747;51.334;6.830;2022-11-15T01:43:35;11.65;;;4.80;;
63599;SDS011;49747;51.334;6.830;2022-11-15T01:49:11;9.20;;;4.75;;
63599;SDS011;49747;51.334;6.830;2022-11-15T01:51:59;8.50;;;4.57;;
63599;SDS011;49747;51.334;6.830;2022-11-15T01:54:48;8.23;;;4.28;;
63599;SDS011;49747;51.334;6.830;2022-11-15T01:57:38;9.60;;;4.78;;
63599;SDS011;49747;51.334;6.830;2022-11-15T02:00:26;6.25;;;4.78;;
63599;SDS011;49747;51.334;6.830;2022-11-15T02:03:13;7.32;;;4.63;;
63599;SDS011;49747;51.334;6.830;2022-11-15T02:05:58;8.50;;;4.53;;
63599;SDS011;49747;51.334;6.830;2022-11-15T02:08:43;6.75;;;4.38;;
63599;SDS011;49747;51.334;6.830;2022-11-15T02:11:29;8.20;;;4.85;;
63599;SDS011;49747;51.334;6.830;2022-11-15T02:14:15;11.27;;;5.20;;
63599;SDS011;49747;51.334;6.830;2022-11-15T02:17:08;7.25;;;4.15;;
63599;SDS011;49747;51.334;6.830;2022-11-15T02:23:24;10.70;;;5.07;;
63599;SDS011;49747;51.334;6.830;2022-11-15T02:32:49;7.75;;;4.93;;
63599;SDS011;49747;51.334;6.830;2022-11-15T02:39:07;8.75;;;5.22;;
63599;SDS011;49747;51.334;6.830;2022-11-15T02:42:02;7.80;;;4.95;;
63599;SDS011;49747;51.334;6.830;2022-11-15T02:45:16;12.98;;;4.93;;
63599;SDS011;49747;51.334;6.830;2022-11-15T02:48:04;8.73;;;5.07;;
63599;SDS011;49747;51.334;6.830;2022-11-15T02:50:51;8.15;;;5.22;;
63599;SDS011;49747;51.334;6.830;2022-11-15T02:53:37;7.88;;;5.05;;
63599;SDS011;49747;51.334;6.830;2022-11-15T02:56:23;10.07;;;5.43;;
63599;SDS011;49747;51.334;6.830;2022-11-15T02:59:19;9.18;;;5.50;;
63599;SDS011;49747;51.334;6.830;2022-11-15T03:08:37;9.98;;;5.82;;
63599;SDS011;49747;51.334;6.830;2022-11-15T03:11:35;7.95;;;5.10;;
63599;SDS011;49747;51.334;6.830;2022-11-15T03:14:33;7.47;;;4.78;;
63599;SDS011;49747;51.334;6.830;2022-11-15T03:17:26;8.25;;;5.50;;
63599;SDS011;49747;51.334;6.830;2022-11-15T03:20:15;11.20;;;5.32;;
63599;SDS011;49747;51.334;6.830;2022-11-15T03:23:06;10.95;;;5.43;;
63599;SDS011;49747;51.334;6.830;2022-11-15T03:25:54;8.00;;;4.95;;
63599;SDS011;49747;51.334;6.830;2022-11-15T03:28:45;7.93;;;5.13;;
63599;SDS011;49747;51.334;6.830;2022-11-15T03:37:40;10.80;;;5.63;;
63599;SDS011;49747;51.334;6.830;2022-11-15T03:40:38;6.63;;;4.20;;
63599;SDS011;49747;51.334;6.830;2022-11-15T03:49:34;10.15;;;5.20;;
63599;SDS011;49747;51.334;6.830;2022-11-15T03:52:21;8.80;;;4.78;;
63599;SDS011;49747;51.334;6.830;2022-11-15T03:55:10;7.32;;;4.22;;
63599;SDS011;49747;51.334;6.830;2022-11-15T03:57:58;8.32;;;4.18;;
63599;SDS011;49747;51.334;6.830;2022-11-15T04:00:45;7.45;;;4.10;;
63599;SDS011;49747;51.334;6.830;2022-11-15T04:03:30;7.70;;;4.63;;
63599;SDS011;49747;51.334;6.830;2022-11-15T04:06:16;7.57;;;4.13;;
63599;SDS011;49747;51.334;6.830;2022-11-15T04:09:02;7.10;;;4.57;;
63599;SDS011;49747;51.334;6.830;2022-11-15T04:11:47;9.32;;;5.22;;
63599;SDS011;49747;51.334;6.830;2022-11-15T04:14:32;7.03;;;4.38;;
63599;SDS011;49747;51.334;6.830;2022-11-15T04:17:18;7.88;;;4.40;;
63599;SDS011;49747;51.334;6.830;2022-11-15T04:20:07;7.95;;;4.40;;
63599;SDS011;49747;51.334;6.830;2022-11-15T04:23:17;6.90;;;4.45;;
63599;SDS011;49747;51.334;6.830;2022-11-15T04:26:23;7.00;;;3.90;;
63599;SDS011;49747;51.334;6.830;2022-11-15T04:29:08;6.22;;;4.40;;
63599;SDS011;49747;51.334;6.830;2022-11-15T04:32:13;7.10;;;4.43;;
63599;SDS011;49747;51.334;6.830;2022-11-15T04:34:58;6.55;;;3.88;;
63599;SDS011;49747;51.334;6.830;2022-11-15T04:37:43;8.30;;;4.38;;
63599;SDS011;49747;51.334;6.830;2022-11-15T04:40:33;7.70;;;4.22;;
63599;SDS011;49747;51.334;6.830;2022-11-15T04:43:18;6.38;;;3.97;;
63599;SDS011;49747;51.334;6.830;2022-11-15T04:46:04;7.32;;;3.78;;
63599;SDS011;49747;51.334;6.830;2022-11-15T04:48:50;7.15;;;4.95;;
63599;SDS011;49747;51.334;6.830;2022-11-15T04:51:42;6.75;;;3.80;;
63599;SDS011;49747;51.334;6.830;2022-11-15T04:54:27;6.22;;;3.80;;
63599;SDS011;49747;51.334;6.830;2022-11-15T04:57:12;6.93;;;3.78;;
63599;SDS011;49747;51.334;6.830;2022-11-15T04:59:58;5.18;;;3.63;;
63599;SDS011;49747;51.334;6.830;2022-11-15T05:02:43;7.50;;;3.65;;
63599;SDS011;49747;51.334;6.830;2022-11-15T05:05:48;5.80;;;3.30;;
63599;SDS011;49747;51.334;6.830;2022-11-15T05:08:33;5.28;;;3.78;;
63599;SDS011;49747;51.334;6.830;2022-11-15T05:11:18;7.03;;;3.70;;
63599;SDS011;49747;51.334;6.830;2022-11-15T05:14:05;5.28;;;3.85;;
63599;SDS011;49747;51.334;6.830;2022-11-15T05:16:50;5.75;;;3.60;;
63599;SDS011;49747;51.334;6.830;2022-11-15T05:19:35;9.40;;;4.00;;
63599;SDS011;49747;51.334;6.830;2022-11-15T05:22:21;6.78;;;3.83;;
63599;SDS011;49747;51.334;6.830;2022-11-15T05:25:07;7.03;;;4.03;;
63599;SDS011;49747;51.334;6.830;2022-11-15T05:27:53;8.57;;;4.20;;
63599;SDS011;49747;51.334;6.830;2022-11-15T05:30:39;6.30;;;4.05;;
63599;SDS011;49747;51.334;6.830;2022-11-15T05:33:24;5.95;;;4.13;;
63599;SDS011;49747;51.334;6.830;2022-11-15T05:36:18;7.05;;;4.30;;
63599;SDS011;49747;51.334;6.830;2022-11-15T05:39:10;6.43;;;3.92;;
63599;SDS011;49747;51.334;6.830;2022-11-15T05:41:58;5.57;;;4.20;;
63599;SDS011;49747;51.334;6.830;2022-11-15T05:47:35;5.22;;;4.03;;
63599;SDS011;49747;51.334;6.830;2022-11-15T05:50:23;5.85;;;4.40;;
63599;SDS011;49747;51.334;6.830;2022-11-15T05:53:10;7.90;;;3.90;;
63599;SDS011;49747;51.334;6.830;2022-11-15T05:55:57;6.18;;;4.13;;
63599;SDS011;49747;51.334;6.830;2022-11-15T05:58:42;7.65;;;4.63;;
63599;SDS011;49747;51.334;6.830;2022-11-15T06:01:28;6.22;;;4.00;;
63599;SDS011;49747;51.334;6.830;2022-11-15T06:04:14;6.78;;;4.93;;
63599;SDS011;49747;51.334;6.830;2022-11-15T06:06:59;6.18;;;4.15;;
63599;SDS011;49747;51.334;6.830;2022-11-15T06:09:46;7.82;;;4.43;;
63599;SDS011;49747;51.334;6.830;2022-11-15T06:12:31;6.82;;;4.60;;
63599;SDS011;49747;51.334;6.830;2022-11-15T06:15:16;5.47;;;3.88;;
63599;SDS011;49747;51.334;6.830;2022-11-15T06:18:01;6.82;;;4.28;;
63599;SDS011;49747;51.334;6.830;2022-11-15T06:20:46;5.53;;;3.92;;
63599;SDS011;49747;51.334;6.830;2022-11-15T06:23:32;6.30;;;4.03;;
63599;SDS011;49747;51.334;6.830;2022-11-15T06:26:18;6.68;;;4.22;;
63599;SDS011;49747;51.334;6.830;2022-11-15T06:29:04;7.55;;;4.07;;
63599;SDS011;49747;51.334;6.830;2022-11-15T06:31:49;6.35;;;3.65;;
63599;SDS011;49747;51.334;6.830;2022-11-15T06:34:34;6.38;;;4.05;;
63599;SDS011;49747;51.334;6.830;2022-11-15T06:37:20;6.47;;;4.20;;
63599;SDS011;49747;51.334;6.830;2022-11-15T06:40:06;6.38;;;4.10;;
63599;SDS011;49747;51.334;6.830;2022-11-15T06:43:02;4.97;;;3.53;;
63599;SDS011;49747;51.334;6.830;2022-11-15T06:45:48;6.60;;;4.40;;
63599;SDS011;49747;51.334;6.830;2022-11-15T06:48:34;6.82;;;4.70;;
63599;SDS011;49747;51.334;6.830;2022-11-15T06:51:21;8.13;;;4.22;;
63599;SDS011;49747;51.334;6.830;2022-11-15T06:54:06;5.90;;;4.10;;
63599;SDS011;49747;51.334;6.830;2022-11-15T06:56:52;5.57;;;4.07;;
63599;SDS011;49747;51.334;6.830;2022-11-15T06:59:37;6.35;;;4.00;;
63599;SDS011;49747;51.334;6.830;2022-11-15T07:02:24;7.70;;;3.88;;
63599;SDS011;49747;51.334;6.830;2022-11-15T07:05:09;5.68;;;3.60;;
63599;SDS011;49747;51.334;6.830;2022-11-15T07:07:56;6.85;;;3.58;;
63599;SDS011;49747;51.334;6.830;2022-11-15T07:10:42;6.75;;;3.50;;
63599;SDS011;49747;51.334;6.830;2022-11-15T07:13:28;5.28;;;3.58;;
63599;SDS011;49747;51.334;6.830;2022-11-15T07:16:18;6.75;;;3.95;;
63599;SDS011;49747;51.334;6.830;2022-11-15T07:19:04;5.07;;;3.53;;
63599;SDS011;49747;51.334;6.830;2022-11-15T07:21:49;5.55;;;3.67;;
63599;SDS011;49747;51.334;6.830;2022-11-15T07:24:34;6.10;;;3.40;;
63599;SDS011;49747;51.334;6.830;2022-11-15T07:27:19;5.00;;;3.10;;
63599;SDS011;49747;51.334;6.830;2022-11-15T07:30:05;6.82;;;3.45;;
63599;SDS011;49747;51.334;6.830;2022-11-15T07:35:43;6.43;;;3.28;;
63599;SDS011;49747;51.334;6.830;2022-11-15T07:38:31;4.63;;;2.83;;
63599;SDS011;49747;51.334;6.830;2022-11-15T07:41:25;4.70;;;3.08;;
63599;SDS011;49747;51.334;6.830;2022-11-15T07:44:10;4.30;;;2.80;;
63599;SDS011;49747;51.334;6.830;2022-11-15T07:46:55;4.32;;;2.50;;
63599;SDS011;49747;51.334;6.830;2022-11-15T07:49:40;4.68;;;2.80;;
63599;SDS011;49747;51.334;6.830;2022-11-15T07:52:26;4.93;;;2.97;;
63599;SDS011;49747;51.334;6.830;2022-11-15T07:55:11;6.18;;;3.20;;
63599;SDS011;49747;51.334;6.830;2022-11-15T07:58:06;4.68;;;2.92;;
63599;SDS011;49747;51.334;6.830;2022-11-15T08:00:55;5.18;;;3.03;;
63599;SDS011;49747;51.334;6.830;2022-11-15T08:03:41;5.68;;;3.20;;
63599;SDS011;49747;51.334;6.830;2022-11-15T08:06:26;6.13;;;3.25;;
63599;SDS011;49747;51.334;6.830;2022-11-15T08:09:11;4.88;;;2.65;;
63599;SDS011;49747;51.334;6.830;2022-11-15T08:11:56;5.38;;;3.25;;
63599;SDS011;49747;51.334;6.830;2022-11-15T08:14:42;5.25;;;2.97;;
63599;SDS011;49747;51.334;6.830;2022-11-15T08:17:28;9.00;;;3.47;;
63599;SDS011;49747;51.334;6.830;2022-11-15T08:20:16;5.50;;;3.33;;
63599;SDS011;49747;51.334;6.830;2022-11-15T08:23:02;10.60;;;2.97;;
63599;SDS011;49747;51.334;6.830;2022-11-15T08:25:48;7.00;;;2.95;;
63599;SDS011;49747;51.334;6.830;2022-11-15T08:28:34;5.50;;;3.10;;
63599;SDS011;49747;51.334;6.830;2022-11-15T08:31:19;5.22;;;2.78;;
63599;SDS011;49747;51.334;6.830;2022-11-15T08:34:05;4.15;;;2.83;;
63599;SDS011;49747;51.334;6.830;2022-11-15T08:36:51;5.60;;;2.90;;
63599;SDS011;49747;51.334;6.830;2022-11-15T08:39:36;14.30;;;4.78;;
63599;SDS011;49747;51.334;6.830;2022-11-15T08:42:23;8.00;;;3.42;;
63599;SDS011;49747;51.334;6.830;2022-11-15T08:45:08;5.32;;;2.90;;
63599;SDS011;49747;51.334;6.830;2022-11-15T08:47:54;3.50;;;2.22;;
63599;SDS011;49747;51.334;6.830;2022-11-15T08:50:39;3.80;;;2.45;;
63599;SDS011;49747;51.334;6.830;2022-11-15T08:53:26;5.22;;;2.55;;
63599;SDS011;49747;51.334;6.830;2022-11-15T08:56:11;4.32;;;2.90;;
63599;SDS011;49747;51.334;6.830;2022-11-15T08:58:58;4.93;;;2.88;;
63599;SDS011;49747;51.334;6.830;2022-11-15T09:01:43;3.28;;;2.50;;
63599;SDS011;49747;51.334;6.830;2022-11-15T09:04:28;5.95;;;2.50;;
63599;SDS011;49747;51.334;6.830;2022-11-15T09:07:13;3.88;;;2.40;;
63599;SDS011;49747;51.334;6.830;2022-11-15T09:09:59;4.43;;;2.40;;
63599;SDS011;49747;51.334;6.830;2022-11-15T09:12:44;5.15;;;2.30;;
63599;SDS011;49747;51.334;6.830;2022-11-15T09:15:33;5.10;;;2.30;;
63599;SDS011;49747;51.334;6.830;2022-11-15T09:18:18;3.90;;;2.05;;
63599;SDS011;49747;51.334;6.830;2022-11-15T09:21:06;3.00;;;1.77;;
63599;SDS011;49747;51.334;6.830;2022-11-15T09:23:52;4.03;;;1.77;;
63599;SDS011;49747;51.334;6.830;2022-11-15T09:26:37;3.95;;;1.92;;
63599;SDS011;49747;51.334;6.830;2022-11-15T09:29:22;3.22;;;1.73;;
63599;SDS011;49747;51.334;6.830;2022-11-15T09:32:08;4.20;;;2.03;;
63599;SDS011;49747;51.334;6.830;2022-11-15T09:34:54;3.35;;;1.70;;
63599;SDS011;49747;51.334;6.830;2022-11-15T09:37:39;4.05;;;1.77;;
63599;SDS011;49747;51.334;6.830;2022-11-15T09:40:24;3.47;;;1.80;;
63599;SDS011;49747;51.334;6.830;2022-11-15T09:43:32;5.75;;;1.45;;
63599;SDS011;49747;51.334;6.830;2022-11-15T09:46:35;4.28;;;2.00;;
63599;SDS011;49747;51.334;6.830;2022-11-15T09:49:17;2.42;;;1.58;;
63599;SDS011;49747;51.334;6.830;2022-11-15T09:51:59;2.53;;;1.48;;
63599;SDS011;49747;51.334;6.830;2022-11-15T09:54:28;5.38;;;1.77;;
63599;SDS011;49747;51.334;6.830;2022-11-15T09:57:28;2.85;;;1.70;;
63599;SDS011;49747;51.334;6.830;2022-11-15T10:03:06;3.47;;;1.70;;
63599;SDS011;49747;51.334;6.830;2022-11-15T10:05:38;3.53;;;1.58;;
63599;SDS011;49747;51.334;6.830;2022-11-15T10:11:00;4.00;;;1.60;;
63599;SDS011;49747;51.334;6.830;2022-11-15T10:13:50;3.40;;;1.58;;
63599;SDS011;49747;51.334;6.830;2022-11-15T10:22:38;3.72;;;1.38;;
63599;SDS011;49747;51.334;6.830;2022-11-15T10:24:58;1.42;;;1.20;;
63599;SDS011;49747;51.334;6.830;2022-11-15T10:27:35;2.08;;;1.08;;
63599;SDS011;49747;51.334;6.830;2022-11-15T10:30:04;2.58;;;1.42;;
63599;SDS011;49747;51.334;6.830;2022-11-15T10:32:36;4.50;;;1.45;;
63599;SDS011;49747;51.334;6.830;2022-11-15T10:35:16;3.35;;;1.50;;
63599;SDS011;49747;51.334;6.830;2022-11-15T10:38:05;3.08;;;1.38;;
63599;SDS011;49747;51.334;6.830;2022-11-15T10:40:34;3.58;;;1.17;;
63599;SDS011;49747;51.334;6.830;2022-11-15T10:43:10;3.30;;;1.63;;
63599;SDS011;49747;51.334;6.830;2022-11-15T10:45:40;2.40;;;1.38;;
63599;SDS011;49747;51.334;6.830;2022-11-15T10:50:40;4.07;;;1.30;;
63599;SDS011;49747;51.334;6.830;2022-11-15T10:55:52;2.78;;;1.60;;
63599;SDS011;49747;51.334;6.830;2022-11-15T11:01:08;3.60;;;1.25;;
63599;SDS011;49747;51.334;6.830;2022-11-15T11:03:37;2.03;;;1.10;;
63599;SDS011;49747;51.334;6.830;2022-11-15T11:08:56;1.17;;;0.93;;
63599;SDS011;49747;51.334;6.830;2022-11-15T11:11:23;4.65;;;1.58;;
63599;SDS011;49747;51.334;6.830;2022-11-15T11:13:51;3.47;;;1.17;;
63599;SDS011;49747;51.334;6.830;2022-11-15T11:17:01;3.28;;;1.38;;
63599;SDS011;49747;51.334;6.830;2022-11-15T11:19:18;2.47;;;1.15;;
63599;SDS011;49747;51.334;6.830;2022-11-15T11:33:22;3.95;;;1.00;;
63599;SDS011;49747;51.334;6.830;2022-11-15T11:36:17;1.90;;;0.98;;
63599;SDS011;49747;51.334;6.830;2022-11-15T11:38:50;1.60;;;1.02;;
63599;SDS011;49747;51.334;6.830;2022-11-15T11:41:38;2.67;;;1.00;;
63599;SDS011;49747;51.334;6.830;2022-11-15T11:47:11;3.22;;;1.13;;
63599;SDS011;49747;51.334;6.830;2022-11-15T11:49:46;1.85;;;0.80;;
63599;SDS011;49747;51.334;6.830;2022-11-15T11:52:31;3.22;;;1.30;;
63599;SDS011;49747;51.334;6.830;2022-11-15T11:55:18;4.45;;;1.42;;
63599;SDS011;49747;51.334;6.830;2022-11-15T11:58:06;2.55;;;1.00;;
63599;SDS011;49747;51.334;6.830;2022-11-15T12:00:38;1.73;;;0.85;;
63599;SDS011;49747;51.334;6.830;2022-11-15T12:09:07;3.42;;;0.90;;
63599;SDS011;49747;51.334;6.830;2022-11-15T12:14:49;1.92;;;0.90;;
63599;SDS011;49747;51.334;6.830;2022-11-15T12:17:21;2.53;;;0.93;;
63599;SDS011;49747;51.334;6.830;2022-11-15T12:19:51;1.70;;;0.90;;
63599;SDS011;49747;51.334;6.830;2022-11-15T12:33:46;3.60;;;0.90;;
63599;SDS011;49747;51.334;6.830;2022-11-15T12:41:24;1.20;;;0.75;;
63599;SDS011;49747;51.334;6.830;2022-11-15T12:43:54;2.60;;;0.95;;
63599;SDS011;49747;51.334;6.830;2022-11-15T12:48:56;2.35;;;0.82;;
63599;SDS011;49747;51.334;6.830;2022-11-15T13:02:37;2.03;;;0.90;;
63599;SDS011;49747;51.334;6.830;2022-11-15T13:17:43;4.50;;;1.17;;
63599;SDS011;49747;51.334;6.830;2022-11-15T13:22:42;2.13;;;1.02;;
63599;SDS011;49747;51.334;6.830;2022-11-15T13:25:46;4.82;;;1.10;;
63599;SDS011;49747;51.334;6.830;2022-11-15T13:31:17;4.03;;;0.98;;
63599;SDS011;49747;51.334;6.830;2022-11-15T13:33:59;2.70;;;1.20;;
63599;SDS011;49747;51.334;6.830;2022-11-15T13:36:31;4.80;;;1.15;;
63599;SDS011;49747;51.334;6.830;2022-11-15T13:39:02;3.25;;;1.17;;
63599;SDS011;49747;51.334;6.830;2022-11-15T13:41:34;4.60;;;1.00;;
63599;SDS011;49747;51.334;6.830;2022-11-15T13:44:03;4.57;;;1.10;;
63599;SDS011;49747;51.334;6.830;2022-11-15T13:46:31;3.70;;;1.02;;
63599;SDS011;49747;51.334;6.830;2022-11-15T13:49:00;1.20;;;0.80;;
63599;SDS011;49747;51.334;6.830;2022-11-15T13:51:33;2.53;;;0.95;;
63599;SDS011;49747;51.334;6.830;2022-11-15T13:54:09;3.08;;;0.85;;
63599;SDS011;49747;51.334;6.830;2022-11-15T13:57:05;2.80;;;0.88;;
63599;SDS011;49747;51.334;6.830;2022-11-15T13:59:57;3.47;;;1.02;;
63599;SDS011;49747;51.334;6.830;2022-11-15T14:02:37;3.05;;;1.00;;
63599;SDS011;49747;51.334;6.830;2022-11-15T14:05:14;3.28;;;1.38;;
63599;SDS011;49747;51.334;6.830;2022-11-15T14:07:52;3.40;;;1.23;;
63599;SDS011;49747;51.334;6.830;2022-11-15T14:10:37;0.93;;;0.80;;
63599;SDS011;49747;51.334;6.830;2022-11-15T14:13:10;3.40;;;0.90;;
63599;SDS011;49747;51.334;6.830;2022-11-15T14:18:52;2.08;;;0.90;;
63599;SDS011;49747;51.334;6.830;2022-11-15T14:21:19;2.28;;;1.02;;
63599;SDS011;49747;51.334;6.830;2022-11-15T14:23:46;3.92;;;1.30;;
63599;SDS011;49747;51.334;6.830;2022-11-15T14:32:16;1.55;;;1.20;;
63599;SDS011;49747;51.334;6.830;2022-11-15T14:34:44;2.78;;;1.23;;
63599;SDS011;49747;51.334;6.830;2022-11-15T14:37:33;5.93;;;1.50;;
63599;SDS011;49747;51.334;6.830;2022-11-15T14:40:04;2.60;;;1.02;;
63599;SDS011;49747;51.334;6.830;2022-11-15T14:42:32;4.43;;;1.52;;
63599;SDS011;49747;51.334;6.830;2022-11-15T14:44:58;3.38;;;1.42;;
63599;SDS011;49747;51.334;6.830;2022-11-15T14:47:25;3.17;;;1.58;;
63599;SDS011;49747;51.334;6.830;2022-11-15T14:49:51;3.28;;;1.50;;
63599;SDS011;49747;51.334;6.830;2022-11-15T14:52:23;3.63;;;1.30;;
63599;SDS011;49747;51.334;6.830;2022-11-15T14:55:00;5.50;;;1.67;;
63599;SDS011;49747;51.334;6.830;2022-11-15T14:57:38;4.95;;;1.75;;
63599;SDS011;49747;51.334;6.830;2022-11-15T15:00:04;2.80;;;1.50;;
63599;SDS011;49747;51.334;6.830;2022-11-15T15:02:38;3.40;;;1.95;;
63599;SDS011;49747;51.334;6.830;2022-11-15T15:05:17;5.53;;;2.13;;
63599;SDS011;49747;51.334;6.830;2022-11-15T15:07:46;4.20;;;1.75;;
63599;SDS011;49747;51.334;6.830;2022-11-15T15:10:13;6.45;;;2.10;;
63599;SDS011;49747;51.334;6.830;2022-11-15T15:13:03;3.97;;;2.05;;
63599;SDS011;49747;51.334;6.830;2022-11-15T15:15:34;3.55;;;2.20;;
63599;SDS011;49747;51.334;6.830;2022-11-15T15:18:05;4.22;;;1.63;;
63599;SDS011;49747;51.334;6.830;2022-11-15T15:20:32;3.95;;;1.88;;
63599;SDS011;49747;51.334;6.830;2022-11-15T15:22:59;3.95;;;1.73;;
63599;SDS011;49747;51.334;6.830;2022-11-15T15:27:58;4.50;;;1.83;;
63599;SDS011;49747;51.334;6.830;2022-11-15T15:30:26;4.40;;;1.88;;
63599;SDS011;49747;51.334;6.830;2022-11-15T15:32:54;2.33;;;1.70;;
63599;SDS011;49747;51.334;6.830;2022-11-15T15:35:21;7.80;;;1.98;;
63599;SDS011;49747;51.334;6.830;2022-11-15T15:37:48;3.80;;;1.75;;
63599;SDS011;49747;51.334;6.830;2022-11-15T15:40:17;2.20;;;1.60;;
63599;SDS011;49747;51.334;6.830;2022-11-15T15:42:48;3.35;;;1.77;;
63599;SDS011;49747;51.334;6.830;2022-11-15T15:45:16;3.35;;;1.85;;
63599;SDS011;49747;51.334;6.830;2022-11-15T15:47:44;2.33;;;1.70;;
63599;SDS011;49747;51.334;6.830;2022-11-15T15:52:58;2.42;;;1.65;;
63599;SDS011;49747;51.334;6.830;2022-11-15T15:55:28;3.67;;;2.00;;
63599;SDS011;49747;51.334;6.830;2022-11-15T15:57:55;2.35;;;1.67;;
63599;SDS011;49747;51.334;6.830;2022-11-15T16:00:23;3.85;;;2.00;;
63599;SDS011;49747;51.334;6.830;2022-11-15T16:02:51;3.45;;;1.83;;
63599;SDS011;49747;51.334;6.830;2022-11-15T16:05:18;2.75;;;1.83;;
63599;SDS011;49747;51.334;6.830;2022-11-15T16:07:45;4.05;;;1.80;;
63599;SDS011;49747;51.334;6.830;2022-11-15T16:12:46;5.38;;;2.03;;
63599;SDS011;49747;51.334;6.830;2022-11-15T16:15:13;3.90;;;1.85;;
63599;SDS011;49747;51.334;6.830;2022-11-15T16:17:41;3.75;;;2.15;;
63599;SDS011;49747;51.334;6.830;2022-11-15T16:20:54;2.40;;;1.70;;
63599;SDS011;49747;51.334;6.830;2022-11-15T16:23:08;2.88;;;1.90;;
63599;SDS011;49747;51.334;6.830;2022-11-15T16:25:45;4.90;;;1.77;;
63599;SDS011;49747;51.334;6.830;2022-11-15T16:28:16;4.45;;;1.90;;
63599;SDS011;49747;51.334;6.830;2022-11-15T16:30:49;2.60;;;1.45;;
63599;SDS011;49747;51.334;6.830;2022-11-15T16:33:25;2.40;;;1.52;;
63599;SDS011;49747;51.334;6.830;2022-11-15T16:35:52;5.65;;;2.33;;
63599;SDS011;49747;51.334;6.830;2022-11-15T16:38:18;4.45;;;1.92;;
63599;SDS011;49747;51.334;6.830;2022-11-15T16:40:45;4.20;;;2.17;;
63599;SDS011;49747;51.334;6.830;2022-11-15T16:43:12;2.13;;;1.77;;
63599;SDS011;49747;51.334;6.830;2022-11-15T16:45:38;4.05;;;1.70;;
63599;SDS011;49747;51.334;6.830;2022-11-15T16:48:05;3.20;;;1.65;;
63599;SDS011;49747;51.334;6.830;2022-11-15T16:50:32;2.70;;;1.50;;
63599;SDS011;49747;51.334;6.830;2022-11-15T16:53:06;4.88;;;2.00;;
63599;SDS011;49747;51.334;6.830;2022-11-15T16:55:33;3.92;;;2.13;;
63599;SDS011;49747;51.334;6.830;2022-11-15T16:57:59;6.40;;;1.90;;
63599;SDS011;49747;51.334;6.830;2022-11-15T17:00:27;2.90;;;1.58;;
63599;SDS011;49747;51.334;6.830;2022-11-15T17:02:53;4.47;;;2.00;;
63599;SDS011;49747;51.334;6.830;2022-11-15T17:05:21;3.08;;;1.65;;
63599;SDS011;49747;51.334;6.830;2022-11-15T17:07:50;4.00;;;1.75;;
63599;SDS011;49747;51.334;6.830;2022-11-15T17:10:21;4.78;;;1.80;;
63599;SDS011;49747;51.334;6.830;2022-11-15T17:12:48;2.75;;;1.83;;
63599;SDS011;49747;51.334;6.830;2022-11-15T17:15:16;5.28;;;1.75;;
63599;SDS011;49747;51.334;6.830;2022-11-15T17:17:43;3.08;;;1.75;;
63599;SDS011;49747;51.334;6.830;2022-11-15T17:20:14;2.80;;;1.63;;
63599;SDS011;49747;51.334;6.830;2022-11-15T17:22:42;2.50;;;1.60;;
63599;SDS011;49747;51.334;6.830;2022-11-15T17:25:09;2.50;;;1.75;;
63599;SDS011;49747;51.334;6.830;2022-11-15T17:27:36;2.65;;;1.85;;
63599;SDS011;49747;51.334;6.830;2022-11-15T17:30:03;3.15;;;1.80;;
63599;SDS011;49747;51.334;6.830;2022-11-15T17:32:30;2.72;;;1.63;;
63599;SDS011;49747;51.334;6.830;2022-11-15T17:34:56;2.65;;;1.73;;
63599;SDS011;49747;51.334;6.830;2022-11-15T17:37:23;1.83;;;1.55;;
63599;SDS011;49747;51.334;6.830;2022-11-15T17:39:49;2.55;;;1.67;;
63599;SDS011;49747;51.334;6.830;2022-11-15T17:42:16;3.05;;;1.50;;
63599;SDS011;49747;51.334;6.830;2022-11-15T17:44:43;3.13;;;1.73;;
63599;SDS011;49747;51.334;6.830;2022-11-15T17:47:09;2.63;;;1.48;;
63599;SDS011;49747;51.334;6.830;2022-11-15T17:49:36;5.47;;;2.40;;
63599;SDS011;49747;51.334;6.830;2022-11-15T17:52:04;2.75;;;1.60;;
63599;SDS011;49747;51.334;6.830;2022-11-15T17:54:31;4.65;;;2.08;;
63599;SDS011;49747;51.334;6.830;2022-11-15T17:56:58;2.17;;;1.48;;
63599;SDS011;49747;51.334;6.830;2022-11-15T17:59:24;3.22;;;1.95;;
63599;SDS011;49747;51.334;6.830;2022-11-15T18:01:51;4.47;;;2.00;;
63599;SDS011;49747;51.334;6.830;2022-11-15T18:04:19;6.18;;;2.25;;
63599;SDS011;49747;51.334;6.830;2022-11-15T18:06:46;2.78;;;1.98;;
63599;SDS011;49747;51.334;6.830;2022-11-15T18:09:13;3.88;;;1.70;;
63599;SDS011;49747;51.334;6.830;2022-11-15T18:11:40;4.10;;;2.10;;
63599;SDS011;49747;51.334;6.830;2022-11-15T18:14:11;3.13;;;1.80;;
63599;SDS011;49747;51.334;6.830;2022-11-15T18:16:39;2.65;;;1.83;;
63599;SDS011;49747;51.334;6.830;2022-11-15T18:19:06;3.97;;;1.60;;
63599;SDS011;49747;51.334;6.830;2022-11-15T18:21:38;3.25;;;1.60;;
63599;SDS011;49747;51.334;6.830;2022-11-15T18:24:22;3.03;;;1.65;;
63599;SDS011;49747;51.334;6.830;2022-11-15T18:26:53;3.50;;;1.90;;
63599;SDS011;49747;51.334;6.830;2022-11-15T18:29:20;4.07;;;1.77;;
63599;SDS011;49747;51.334;6.830;2022-11-15T18:31:50;3.97;;;2.42;;
63599;SDS011;49747;51.334;6.830;2022-11-15T18:34:24;5.78;;;1.88;;
63599;SDS011;49747;51.334;6.830;2022-11-15T18:36:57;4.13;;;2.10;;
63599;SDS011;49747;51.334;6.830;2022-11-15T18:39:25;2.72;;;1.77;;